sensor_id;sensor_type;location;lat;lon;timestamp;pressure;altitude;pressure_sealevel;temperature
68952;BMP180;56000;51.146;17.112;2023-02-22T00:01:05;100273.20;;;6.30
68952;BMP180;56000;51.146;17.112;2023-02-22T00:03:52;100280.80;;;6.30
68952;BMP180;56000;51.146;17.112;2023-02-22T00:06:25;100270.80;;;6.20
68952;BMP180;56000;51.146;17.112;2023-02-22T00:08:59;100277.80;;;6.10
68952;BMP180;56000;51.146;17.112;2023-02-22T00:11:33;100276.00;;;6.08
68952;BMP180;56000;51.146;17.112;2023-02-22T00:14:06;100276.80;;;6.00
68952;BMP180;56000;51.146;17.112;2023-02-22T00:16:39;100281.40;;;5.90
68952;BMP180;56000;51.146;17.112;2023-02-22T00:19:12;100285.60;;;5.86
68952;BMP180;56000;51.146;17.112;2023-02-22T00:21:48;100284.40;;;5.80
68952;BMP180;56000;51.146;17.112;2023-02-22T00:24:23;100283.80;;;5.70
68952;BMP180;56000;51.146;17.112;2023-02-22T00:26:57;100282.00;;;5.60
68952;BMP180;56000;51.146;17.112;2023-02-22T00:29:30;100287.20;;;5.60
68952;BMP180;56000;51.146;17.112;2023-02-22T00:32:05;100287.80;;;5.50
68952;BMP180;56000;51.146;17.112;2023-02-22T00:34:38;100289.00;;;5.50
68952;BMP180;56000;51.146;17.112;2023-02-22T00:37:11;100291.20;;;5.40
68952;BMP180;56000;51.146;17.112;2023-02-22T00:39:46;100290.80;;;5.40
68952;BMP180;56000;51.146;17.112;2023-02-22T00:42:20;100292.60;;;5.30
68952;BMP180;56000;51.146;17.112;2023-02-22T00:44:53;100292.00;;;5.30
68952;BMP180;56000;51.146;17.112;2023-02-22T00:47:26;100290.00;;;5.20
68952;BMP180;56000;51.146;17.112;2023-02-22T00:50:00;100294.40;;;5.20
68952;BMP180;56000;51.146;17.112;2023-02-22T00:52:34;100296.00;;;5.16
68952;BMP180;56000;51.146;17.112;2023-02-22T00:55:13;100293.80;;;5.10
68952;BMP180;56000;51.146;17.112;2023-02-22T00:57:46;100296.20;;;5.10
68952;BMP180;56000;51.146;17.112;2023-02-22T01:00:23;100301.00;;;5.10
68952;BMP180;56000;51.146;17.112;2023-02-22T01:02:57;100301.20;;;5.00
68952;BMP180;56000;51.146;17.112;2023-02-22T01:05:32;100296.80;;;5.00
68952;BMP180;56000;51.146;17.112;2023-02-22T01:08:09;100306.40;;;5.08
68952;BMP180;56000;51.146;17.112;2023-02-22T01:10:43;100304.60;;;5.10
68952;BMP180;56000;51.146;17.112;2023-02-22T01:13:17;100304.00;;;5.18
68952;BMP180;56000;51.146;17.112;2023-02-22T01:15:50;100302.40;;;5.20
68952;BMP180;56000;51.146;17.112;2023-02-22T01:18:23;100304.80;;;5.24
68952;BMP180;56000;51.146;17.112;2023-02-22T01:20:57;100304.00;;;5.30
68952;BMP180;56000;51.146;17.112;2023-02-22T01:23:32;100303.80;;;5.30
68952;BMP180;56000;51.146;17.112;2023-02-22T01:26:05;100306.00;;;5.30
68952;BMP180;56000;51.146;17.112;2023-02-22T01:28:39;100306.80;;;5.40
68952;BMP180;56000;51.146;17.112;2023-02-22T01:31:12;100303.60;;;5.40
68952;BMP180;56000;51.146;17.112;2023-02-22T01:33:47;100304.20;;;5.40
68952;BMP180;56000;51.146;17.112;2023-02-22T01:36:21;100303.20;;;5.40
68952;BMP180;56000;51.146;17.112;2023-02-22T01:38:54;100299.80;;;5.40
68952;BMP180;56000;51.146;17.112;2023-02-22T01:41:27;100302.20;;;5.40
68952;BMP180;56000;51.146;17.112;2023-02-22T01:44:32;100299.80;;;5.40
68952;BMP180;56000;51.146;17.112;2023-02-22T01:47:07;100303.00;;;5.40
68952;BMP180;56000;51.146;17.112;2023-02-22T01:49:43;100298.80;;;5.40
68952;BMP180;56000;51.146;17.112;2023-02-22T01:52:20;100297.80;;;5.40
68952;BMP180;56000;51.146;17.112;2023-02-22T01:54:56;100300.20;;;5.40
68952;BMP180;56000;51.146;17.112;2023-02-22T01:57:34;100302.40;;;5.30
68952;BMP180;56000;51.146;17.112;2023-02-22T02:00:13;100299.60;;;5.30
68952;BMP180;56000;51.146;17.112;2023-02-22T02:02:54;100294.00;;;5.20
68952;BMP180;56000;51.146;17.112;2023-02-22T02:05:30;100293.60;;;5.20
68952;BMP180;56000;51.146;17.112;2023-02-22T02:08:16;100291.60;;;5.10
68952;BMP180;56000;51.146;17.112;2023-02-22T02:10:52;100292.40;;;5.02
68952;BMP180;56000;51.146;17.112;2023-02-22T02:13:25;100292.00;;;5.00
68952;BMP180;56000;51.146;17.112;2023-02-22T02:15:59;100296.40;;;4.94
68952;BMP180;56000;51.146;17.112;2023-02-22T02:18:32;100293.40;;;4.90
68952;BMP180;56000;51.146;17.112;2023-02-22T02:21:39;100293.80;;;4.90
68952;BMP180;56000;51.146;17.112;2023-02-22T02:24:55;100298.60;;;4.90
68952;BMP180;56000;51.146;17.112;2023-02-22T02:27:38;100294.20;;;4.90
68952;BMP180;56000;51.146;17.112;2023-02-22T02:30:44;100294.40;;;4.92
68952;BMP180;56000;51.146;17.112;2023-02-22T02:33:25;100293.40;;;5.00
68952;BMP180;56000;51.146;17.112;2023-02-22T02:36:06;100294.20;;;5.00
68952;BMP180;56000;51.146;17.112;2023-02-22T02:38:43;100293.40;;;5.10
68952;BMP180;56000;51.146;17.112;2023-02-22T02:41:22;100295.80;;;5.10
68952;BMP180;56000;51.146;17.112;2023-02-22T02:44:01;100293.40;;;5.10
68952;BMP180;56000;51.146;17.112;2023-02-22T02:46:40;100292.20;;;5.18
68952;BMP180;56000;51.146;17.112;2023-02-22T02:49:21;100290.80;;;5.20
68952;BMP180;56000;51.146;17.112;2023-02-22T02:51:56;100292.00;;;5.20
68952;BMP180;56000;51.146;17.112;2023-02-22T02:54:31;100289.20;;;5.20
68952;BMP180;56000;51.146;17.112;2023-02-22T02:57:06;100287.40;;;5.20
68952;BMP180;56000;51.146;17.112;2023-02-22T02:59:40;100287.40;;;5.20
68952;BMP180;56000;51.146;17.112;2023-02-22T03:02:33;100286.00;;;5.20
68952;BMP180;56000;51.146;17.112;2023-02-22T03:05:25;100285.60;;;5.26
68952;BMP180;56000;51.146;17.112;2023-02-22T03:08:07;100294.40;;;5.30
68952;BMP180;56000;51.146;17.112;2023-02-22T03:10:52;100299.60;;;5.30
68952;BMP180;56000;51.146;17.112;2023-02-22T03:13:34;100291.40;;;5.30
68952;BMP180;56000;51.146;17.112;2023-02-22T03:16:23;100289.60;;;5.30
68952;BMP180;56000;51.146;17.112;2023-02-22T03:19:10;100290.00;;;5.30
68952;BMP180;56000;51.146;17.112;2023-02-22T03:21:49;100292.20;;;5.20
68952;BMP180;56000;51.146;17.112;2023-02-22T03:24:32;100291.20;;;5.20
68952;BMP180;56000;51.146;17.112;2023-02-22T03:27:13;100289.40;;;5.24
68952;BMP180;56000;51.146;17.112;2023-02-22T03:29:54;100290.20;;;5.30
68952;BMP180;56000;51.146;17.112;2023-02-22T03:32:37;100293.00;;;5.30
68952;BMP180;56000;51.146;17.112;2023-02-22T03:35:13;100291.80;;;5.30
68952;BMP180;56000;51.146;17.112;2023-02-22T03:37:52;100288.80;;;5.30
68952;BMP180;56000;51.146;17.112;2023-02-22T03:40:30;100291.80;;;5.30
68952;BMP180;56000;51.146;17.112;2023-02-22T03:43:08;100292.60;;;5.30
68952;BMP180;56000;51.146;17.112;2023-02-22T03:45:44;100297.60;;;5.30
68952;BMP180;56000;51.146;17.112;2023-02-22T03:48:24;100294.40;;;5.30
68952;BMP180;56000;51.146;17.112;2023-02-22T03:51:00;100297.00;;;5.30
68952;BMP180;56000;51.146;17.112;2023-02-22T03:53:35;100300.80;;;5.30
68952;BMP180;56000;51.146;17.112;2023-02-22T03:56:12;100301.60;;;5.26
68952;BMP180;56000;51.146;17.112;2023-02-22T03:58:47;100294.80;;;5.20
68952;BMP180;56000;51.146;17.112;2023-02-22T04:01:22;100300.40;;;5.20
68952;BMP180;56000;51.146;17.112;2023-02-22T04:03:55;100306.20;;;5.12
68952;BMP180;56000;51.146;17.112;2023-02-22T04:06:29;100305.00;;;5.10
68952;BMP180;56000;51.146;17.112;2023-02-22T04:09:05;100308.60;;;5.02
68952;BMP180;56000;51.146;17.112;2023-02-22T04:11:39;100312.00;;;4.98
68952;BMP180;56000;51.146;17.112;2023-02-22T04:14:13;100314.40;;;4.90
68952;BMP180;56000;51.146;17.112;2023-02-22T04:16:47;100318.20;;;4.80
68952;BMP180;56000;51.146;17.112;2023-02-22T04:19:21;100317.20;;;4.74
68952;BMP180;56000;51.146;17.112;2023-02-22T04:21:55;100313.40;;;4.70
68952;BMP180;56000;51.146;17.112;2023-02-22T04:24:29;100312.80;;;4.60
68952;BMP180;56000;51.146;17.112;2023-02-22T04:27:02;100307.60;;;4.60
68952;BMP180;56000;51.146;17.112;2023-02-22T04:29:38;100307.40;;;4.60
68952;BMP180;56000;51.146;17.112;2023-02-22T04:32:12;100305.60;;;4.60
68952;BMP180;56000;51.146;17.112;2023-02-22T04:34:45;100303.20;;;4.50
68952;BMP180;56000;51.146;17.112;2023-02-22T04:37:18;100304.40;;;4.50
68952;BMP180;56000;51.146;17.112;2023-02-22T04:39:51;100302.80;;;4.40
68952;BMP180;56000;51.146;17.112;2023-02-22T04:42:24;100298.00;;;4.40
68952;BMP180;56000;51.146;17.112;2023-02-22T04:44:58;100301.00;;;4.32
68952;BMP180;56000;51.146;17.112;2023-02-22T04:47:31;100299.00;;;4.30
68952;BMP180;56000;51.146;17.112;2023-02-22T04:50:06;100303.60;;;4.28
68952;BMP180;56000;51.146;17.112;2023-02-22T04:52:39;100298.20;;;4.26
68952;BMP180;56000;51.146;17.112;2023-02-22T04:55:13;100299.20;;;4.20
68952;BMP180;56000;51.146;17.112;2023-02-22T04:57:47;100300.60;;;4.20
68952;BMP180;56000;51.146;17.112;2023-02-22T05:00:22;100298.00;;;4.14
68952;BMP180;56000;51.146;17.112;2023-02-22T05:02:59;100300.00;;;4.10
68952;BMP180;56000;51.146;17.112;2023-02-22T05:05:33;100300.00;;;4.10
68952;BMP180;56000;51.146;17.112;2023-02-22T05:08:06;100299.20;;;4.00
68952;BMP180;56000;51.146;17.112;2023-02-22T05:10:39;100297.20;;;4.00
68952;BMP180;56000;51.146;17.112;2023-02-22T05:13:12;100298.00;;;4.00
68952;BMP180;56000;51.146;17.112;2023-02-22T05:15:45;100303.60;;;3.90
68952;BMP180;56000;51.146;17.112;2023-02-22T05:18:19;100301.20;;;3.88
68952;BMP180;56000;51.146;17.112;2023-02-22T05:20:52;100299.20;;;3.80
68952;BMP180;56000;51.146;17.112;2023-02-22T05:23:25;100294.80;;;3.70
68952;BMP180;56000;51.146;17.112;2023-02-22T05:25:59;100292.40;;;3.70
68952;BMP180;56000;51.146;17.112;2023-02-22T05:28:32;100296.40;;;3.60
68952;BMP180;56000;51.146;17.112;2023-02-22T05:31:06;100299.40;;;3.60
68952;BMP180;56000;51.146;17.112;2023-02-22T05:33:39;100294.60;;;3.60
68952;BMP180;56000;51.146;17.112;2023-02-22T05:36:12;100296.00;;;3.60
68952;BMP180;56000;51.146;17.112;2023-02-22T05:38:47;100297.60;;;3.56
68952;BMP180;56000;51.146;17.112;2023-02-22T05:41:20;100300.00;;;3.52
68952;BMP180;56000;51.146;17.112;2023-02-22T05:43:54;100300.80;;;3.50
68952;BMP180;56000;51.146;17.112;2023-02-22T05:46:27;100298.80;;;3.54
68952;BMP180;56000;51.146;17.112;2023-02-22T05:49:00;100303.80;;;3.60
68952;BMP180;56000;51.146;17.112;2023-02-22T05:51:33;100303.00;;;3.60
68952;BMP180;56000;51.146;17.112;2023-02-22T05:54:06;100305.60;;;3.70
68952;BMP180;56000;51.146;17.112;2023-02-22T05:56:40;100311.00;;;3.70
68952;BMP180;56000;51.146;17.112;2023-02-22T05:59:13;100315.00;;;3.80
68952;BMP180;56000;51.146;17.112;2023-02-22T06:01:46;100313.60;;;3.80
68952;BMP180;56000;51.146;17.112;2023-02-22T06:04:19;100316.60;;;3.90
68952;BMP180;56000;51.146;17.112;2023-02-22T06:06:53;100319.60;;;4.00
68952;BMP180;56000;51.146;17.112;2023-02-22T06:09:26;100328.40;;;4.10
68952;BMP180;56000;51.146;17.112;2023-02-22T06:12:00;100326.60;;;4.20
68952;BMP180;56000;51.146;17.112;2023-02-22T06:14:33;100328.20;;;4.20
68952;BMP180;56000;51.146;17.112;2023-02-22T06:17:06;100327.20;;;4.30
68952;BMP180;56000;51.146;17.112;2023-02-22T06:19:39;100324.60;;;4.40
68952;BMP180;56000;51.146;17.112;2023-02-22T06:22:18;100330.80;;;4.40
68952;BMP180;56000;51.146;17.112;2023-02-22T06:24:51;100331.00;;;4.50
68952;BMP180;56000;51.146;17.112;2023-02-22T06:27:25;100335.00;;;4.60
68952;BMP180;56000;51.146;17.112;2023-02-22T06:30:02;100335.60;;;4.60
68952;BMP180;56000;51.146;17.112;2023-02-22T06:32:36;100336.40;;;4.68
68952;BMP180;56000;51.146;17.112;2023-02-22T06:35:09;100335.80;;;4.70
68952;BMP180;56000;51.146;17.112;2023-02-22T06:37:43;100334.80;;;4.80
68952;BMP180;56000;51.146;17.112;2023-02-22T06:40:16;100339.40;;;4.88
68952;BMP180;56000;51.146;17.112;2023-02-22T06:42:51;100340.80;;;4.90
68952;BMP180;56000;51.146;17.112;2023-02-22T06:45:24;100338.40;;;5.00
68952;BMP180;56000;51.146;17.112;2023-02-22T06:47:58;100343.80;;;5.04
68952;BMP180;56000;51.146;17.112;2023-02-22T06:50:32;100353.00;;;5.16
68952;BMP180;56000;51.146;17.112;2023-02-22T06:53:06;100358.20;;;5.20
68952;BMP180;56000;51.146;17.112;2023-02-22T06:55:39;100353.20;;;5.30
68952;BMP180;56000;51.146;17.112;2023-02-22T06:58:12;100354.60;;;5.30
68952;BMP180;56000;51.146;17.112;2023-02-22T07:00:46;100360.80;;;5.40
68952;BMP180;56000;51.146;17.112;2023-02-22T07:03:19;100360.40;;;5.50
68952;BMP180;56000;51.146;17.112;2023-02-22T07:05:53;100362.60;;;5.58
68952;BMP180;56000;51.146;17.112;2023-02-22T07:08:26;100364.40;;;5.68
68952;BMP180;56000;51.146;17.112;2023-02-22T07:10:59;100363.20;;;5.80
68952;BMP180;56000;51.146;17.112;2023-02-22T07:13:32;100368.20;;;5.90
68952;BMP180;56000;51.146;17.112;2023-02-22T07:16:06;100373.60;;;5.96
68952;BMP180;56000;51.146;17.112;2023-02-22T07:18:39;100373.40;;;6.02
68952;BMP180;56000;51.146;17.112;2023-02-22T07:21:12;100372.00;;;6.10
68952;BMP180;56000;51.146;17.112;2023-02-22T07:23:52;100370.60;;;6.20
68952;BMP180;56000;51.146;17.112;2023-02-22T07:26:26;100372.20;;;6.30
68952;BMP180;56000;51.146;17.112;2023-02-22T07:29:00;100376.00;;;6.42
68952;BMP180;56000;51.146;17.112;2023-02-22T07:31:36;100378.80;;;6.58
68952;BMP180;56000;51.146;17.112;2023-02-22T07:34:09;100377.40;;;6.70
68952;BMP180;56000;51.146;17.112;2023-02-22T07:36:43;100381.80;;;6.80
68952;BMP180;56000;51.146;17.112;2023-02-22T07:39:16;100375.20;;;6.90
68952;BMP180;56000;51.146;17.112;2023-02-22T07:41:49;100377.20;;;6.92
68952;BMP180;56000;51.146;17.112;2023-02-22T07:44:26;100381.40;;;7.02
68952;BMP180;56000;51.146;17.112;2023-02-22T07:46:59;100381.00;;;7.10
68952;BMP180;56000;51.146;17.112;2023-02-22T07:49:33;100386.80;;;7.20
68952;BMP180;56000;51.146;17.112;2023-02-22T07:52:06;100384.20;;;7.26
68952;BMP180;56000;51.146;17.112;2023-02-22T07:54:39;100386.20;;;7.28
68952;BMP180;56000;51.146;17.112;2023-02-22T07:57:12;100383.40;;;7.30
68952;BMP180;56000;51.146;17.112;2023-02-22T07:59:48;100385.60;;;7.40
68952;BMP180;56000;51.146;17.112;2023-02-22T08:02:24;100381.40;;;7.50
68952;BMP180;56000;51.146;17.112;2023-02-22T08:04:58;100379.00;;;7.58
68952;BMP180;56000;51.146;17.112;2023-02-22T08:07:31;100381.80;;;7.70
68952;BMP180;56000;51.146;17.112;2023-02-22T08:10:05;100380.60;;;7.80
68952;BMP180;56000;51.146;17.112;2023-02-22T08:12:39;100381.80;;;7.88
68952;BMP180;56000;51.146;17.112;2023-02-22T08:15:19;100383.80;;;7.90
68952;BMP180;56000;51.146;17.112;2023-02-22T08:17:54;100382.00;;;8.00
68952;BMP180;56000;51.146;17.112;2023-02-22T08:20:29;100383.40;;;8.10
68952;BMP180;56000;51.146;17.112;2023-02-22T08:23:02;100380.80;;;8.10
68952;BMP180;56000;51.146;17.112;2023-02-22T08:25:36;100381.60;;;8.10
68952;BMP180;56000;51.146;17.112;2023-02-22T08:28:12;100381.00;;;8.10
68952;BMP180;56000;51.146;17.112;2023-02-22T08:30:45;100378.80;;;8.12
68952;BMP180;56000;51.146;17.112;2023-02-22T08:33:19;100380.40;;;8.20
68952;BMP180;56000;51.146;17.112;2023-02-22T08:35:52;100387.00;;;8.24
68952;BMP180;56000;51.146;17.112;2023-02-22T08:38:28;100383.40;;;8.40
68952;BMP180;56000;51.146;17.112;2023-02-22T08:41:02;100383.40;;;8.50
68952;BMP180;56000;51.146;17.112;2023-02-22T08:43:35;100380.80;;;8.70
68952;BMP180;56000;51.146;17.112;2023-02-22T08:46:10;100376.20;;;8.80
68952;BMP180;56000;51.146;17.112;2023-02-22T08:48:51;100374.00;;;9.00
68952;BMP180;56000;51.146;17.112;2023-02-22T08:51:25;100376.60;;;9.20
68952;BMP180;56000;51.146;17.112;2023-02-22T08:53:58;100373.80;;;9.40
68952;BMP180;56000;51.146;17.112;2023-02-22T08:56:31;100371.60;;;9.60
68952;BMP180;56000;51.146;17.112;2023-02-22T08:59:05;100369.00;;;9.86
68952;BMP180;56000;51.146;17.112;2023-02-22T09:01:38;100368.20;;;10.16
68952;BMP180;56000;51.146;17.112;2023-02-22T09:04:12;100366.40;;;10.44
68952;BMP180;56000;51.146;17.112;2023-02-22T09:06:45;100363.60;;;10.70
68952;BMP180;56000;51.146;17.112;2023-02-22T09:09:22;100356.40;;;11.40
68952;BMP180;56000;51.146;17.112;2023-02-22T09:11:55;100351.80;;;11.76
68952;BMP180;56000;51.146;17.112;2023-02-22T09:14:29;100347.40;;;12.62
68952;BMP180;56000;51.146;17.112;2023-02-22T09:17:02;100350.20;;;14.02
68952;BMP180;56000;51.146;17.112;2023-02-22T09:19:36;100347.00;;;14.66
68952;BMP180;56000;51.146;17.112;2023-02-22T09:22:09;100347.20;;;14.70
68952;BMP180;56000;51.146;17.112;2023-02-22T09:24:42;100343.80;;;14.40
68952;BMP180;56000;51.146;17.112;2023-02-22T09:27:16;100345.80;;;14.20
68952;BMP180;56000;51.146;17.112;2023-02-22T09:29:51;100348.20;;;14.20
68952;BMP180;56000;51.146;17.112;2023-02-22T09:32:24;100345.80;;;14.20
68952;BMP180;56000;51.146;17.112;2023-02-22T09:34:58;100354.40;;;14.32
68952;BMP180;56000;51.146;17.112;2023-02-22T09:37:32;100357.40;;;14.40
68952;BMP180;56000;51.146;17.112;2023-02-22T09:40:06;100358.40;;;14.30
68952;BMP180;56000;51.146;17.112;2023-02-22T09:42:45;100353.40;;;14.22
68952;BMP180;56000;51.146;17.112;2023-02-22T09:45:26;100348.60;;;14.32
68952;BMP180;56000;51.146;17.112;2023-02-22T09:48:09;100355.20;;;14.40
68952;BMP180;56000;51.146;17.112;2023-02-22T09:50:57;100358.00;;;14.34
68952;BMP180;56000;51.146;17.112;2023-02-22T09:53:35;100357.80;;;14.20
68952;BMP180;56000;51.146;17.112;2023-02-22T09:56:15;100361.20;;;14.00
68952;BMP180;56000;51.146;17.112;2023-02-22T09:58:52;100358.00;;;13.70
68952;BMP180;56000;51.146;17.112;2023-02-22T10:01:30;100358.40;;;13.52
68952;BMP180;56000;51.146;17.112;2023-02-22T10:04:15;100362.60;;;13.50
68952;BMP180;56000;51.146;17.112;2023-02-22T10:07:09;100358.80;;;13.50
68952;BMP180;56000;51.146;17.112;2023-02-22T10:09:44;100357.60;;;13.50
68952;BMP180;56000;51.146;17.112;2023-02-22T10:12:27;100356.20;;;13.40
68952;BMP180;56000;51.146;17.112;2023-02-22T10:25:11;100351.60;;;13.90
68952;BMP180;56000;51.146;17.112;2023-02-22T10:27:52;100347.80;;;14.58
68952;BMP180;56000;51.146;17.112;2023-02-22T10:30:31;100350.40;;;15.10
68952;BMP180;56000;51.146;17.112;2023-02-22T10:33:11;100343.20;;;15.80
68952;BMP180;56000;51.146;17.112;2023-02-22T10:35:47;100346.20;;;17.50
68952;BMP180;56000;51.146;17.112;2023-02-22T10:38:25;100348.00;;;17.90
68952;BMP180;56000;51.146;17.112;2023-02-22T10:41:03;100345.00;;;17.96
68952;BMP180;56000;51.146;17.112;2023-02-22T10:43:48;100340.80;;;18.30
68952;BMP180;56000;51.146;17.112;2023-02-22T10:46:22;100340.20;;;17.88
68952;BMP180;56000;51.146;17.112;2023-02-22T10:49:03;100340.20;;;17.72
68952;BMP180;56000;51.146;17.112;2023-02-22T10:51:38;100343.20;;;17.24
68952;BMP180;56000;51.146;17.112;2023-02-22T10:54:25;100339.60;;;16.78
68952;BMP180;56000;51.146;17.112;2023-02-22T10:57:00;100340.00;;;16.48
68952;BMP180;56000;51.146;17.112;2023-02-22T10:59:37;100341.20;;;16.06
68952;BMP180;56000;51.146;17.112;2023-02-22T11:02:22;100335.60;;;15.90
68952;BMP180;56000;51.146;17.112;2023-02-22T11:04:57;100335.20;;;15.48
68952;BMP180;56000;51.146;17.112;2023-02-22T11:07:33;100337.20;;;15.10
68952;BMP180;56000;51.146;17.112;2023-02-22T11:10:08;100337.00;;;14.70
68952;BMP180;56000;51.146;17.112;2023-02-22T11:12:42;100335.00;;;14.40
68952;BMP180;56000;51.146;17.112;2023-02-22T11:15:31;100333.80;;;14.18
68952;BMP180;56000;51.146;17.112;2023-02-22T11:18:05;100337.00;;;14.00
68952;BMP180;56000;51.146;17.112;2023-02-22T11:20:39;100336.60;;;13.80
68952;BMP180;56000;51.146;17.112;2023-02-22T11:23:13;100334.60;;;13.60
68952;BMP180;56000;51.146;17.112;2023-02-22T11:26:01;100325.60;;;13.40
68952;BMP180;56000;51.146;17.112;2023-02-22T11:28:36;100325.40;;;13.40
68952;BMP180;56000;51.146;17.112;2023-02-22T11:31:21;100331.80;;;13.60
68952;BMP180;56000;51.146;17.112;2023-02-22T11:34:00;100330.20;;;13.70
68952;BMP180;56000;51.146;17.112;2023-02-22T11:36:37;100325.80;;;13.94
68952;BMP180;56000;51.146;17.112;2023-02-22T11:39:26;100329.40;;;13.98
68952;BMP180;56000;51.146;17.112;2023-02-22T11:42:17;100320.00;;;13.90
68952;BMP180;56000;51.146;17.112;2023-02-22T11:45:09;100320.80;;;13.98
68952;BMP180;56000;51.146;17.112;2023-02-22T11:47:55;100322.00;;;14.14
68952;BMP180;56000;51.146;17.112;2023-02-22T11:50:32;100324.00;;;14.20
68952;BMP180;56000;51.146;17.112;2023-02-22T11:53:30;100328.00;;;14.40
68952;BMP180;56000;51.146;17.112;2023-02-22T11:56:18;100327.60;;;14.40
68952;BMP180;56000;51.146;17.112;2023-02-22T11:59:19;100329.60;;;14.26
68952;BMP180;56000;51.146;17.112;2023-02-22T12:02:04;100324.60;;;14.10
68952;BMP180;56000;51.146;17.112;2023-02-22T12:05:11;100326.00;;;14.10
68952;BMP180;56000;51.146;17.112;2023-02-22T12:08:02;100324.20;;;14.30
68952;BMP180;56000;51.146;17.112;2023-02-22T12:10:54;100313.60;;;14.20
68952;BMP180;56000;51.146;17.112;2023-02-22T12:13:44;100319.80;;;14.00
68952;BMP180;56000;51.146;17.112;2023-02-22T12:16:30;100320.80;;;13.70
68952;BMP180;56000;51.146;17.112;2023-02-22T12:19:18;100316.80;;;13.40
68952;BMP180;56000;51.146;17.112;2023-02-22T12:21:58;100322.20;;;13.30
68952;BMP180;56000;51.146;17.112;2023-02-22T12:24:38;100316.60;;;13.20
68952;BMP180;56000;51.146;17.112;2023-02-22T12:27:16;100319.60;;;13.30
68952;BMP180;56000;51.146;17.112;2023-02-22T12:29:54;100317.40;;;13.30
68952;BMP180;56000;51.146;17.112;2023-02-22T12:32:35;100314.20;;;13.20
68952;BMP180;56000;51.146;17.112;2023-02-22T12:35:18;100314.00;;;13.20
68952;BMP180;56000;51.146;17.112;2023-02-22T12:38:00;100316.00;;;13.20
68952;BMP180;56000;51.146;17.112;2023-02-22T12:40:40;100316.80;;;13.40
68952;BMP180;56000;51.146;17.112;2023-02-22T12:43:16;100316.00;;;13.70
68952;BMP180;56000;51.146;17.112;2023-02-22T12:45:56;100318.40;;;13.90
68952;BMP180;56000;51.146;17.112;2023-02-22T12:48:43;100316.00;;;13.98
68952;BMP180;56000;51.146;17.112;2023-02-22T12:51:37;100312.60;;;13.90
68952;BMP180;56000;51.146;17.112;2023-02-22T12:54:20;100310.60;;;13.70
68952;BMP180;56000;51.146;17.112;2023-02-22T12:57:01;100309.40;;;13.60
68952;BMP180;56000;51.146;17.112;2023-02-22T12:59:40;100306.80;;;13.48
68952;BMP180;56000;51.146;17.112;2023-02-22T13:02:21;100305.00;;;13.28
68952;BMP180;56000;51.146;17.112;2023-02-22T13:05:00;100302.40;;;13.20
68952;BMP180;56000;51.146;17.112;2023-02-22T13:07:44;100300.20;;;13.20
68952;BMP180;56000;51.146;17.112;2023-02-22T13:10:39;100299.20;;;13.20
68952;BMP180;56000;51.146;17.112;2023-02-22T13:13:26;100300.80;;;13.10
68952;BMP180;56000;51.146;17.112;2023-02-22T13:16:09;100300.60;;;13.00
68952;BMP180;56000;51.146;17.112;2023-02-22T13:18:51;100299.40;;;12.80
68952;BMP180;56000;51.146;17.112;2023-02-22T13:21:34;100296.60;;;12.70
68952;BMP180;56000;51.146;17.112;2023-02-22T13:24:17;100300.80;;;12.60
68952;BMP180;56000;51.146;17.112;2023-02-22T13:26:54;100302.20;;;12.50
68952;BMP180;56000;51.146;17.112;2023-02-22T13:29:35;100306.20;;;12.26
68952;BMP180;56000;51.146;17.112;2023-02-22T13:32:23;100302.60;;;12.10
68952;BMP180;56000;51.146;17.112;2023-02-22T13:41:47;100303.00;;;12.00
68952;BMP180;56000;51.146;17.112;2023-02-22T13:48:10;100311.00;;;11.90
68952;BMP180;56000;51.146;17.112;2023-02-22T13:51:14;100308.40;;;11.90
68952;BMP180;56000;51.146;17.112;2023-02-22T13:53:56;100311.80;;;11.82
68952;BMP180;56000;51.146;17.112;2023-02-22T13:56:30;100308.80;;;11.80
68952;BMP180;56000;51.146;17.112;2023-02-22T13:59:05;100313.20;;;11.70
68952;BMP180;56000;51.146;17.112;2023-02-22T14:01:44;100312.80;;;11.70
68952;BMP180;56000;51.146;17.112;2023-02-22T14:04:37;100310.40;;;11.60
68952;BMP180;56000;51.146;17.112;2023-02-22T14:07:56;100314.00;;;11.50
68952;BMP180;56000;51.146;17.112;2023-02-22T14:10:49;100316.40;;;11.40
68952;BMP180;56000;51.146;17.112;2023-02-22T14:13:23;100315.80;;;11.30
68952;BMP180;56000;51.146;17.112;2023-02-22T14:16:23;100314.20;;;11.10
68952;BMP180;56000;51.146;17.112;2023-02-22T14:19:11;100305.40;;;10.94
68952;BMP180;56000;51.146;17.112;2023-02-22T14:22:00;100311.80;;;10.90
68952;BMP180;56000;51.146;17.112;2023-02-22T14:24:44;100309.80;;;10.72
68952;BMP180;56000;51.146;17.112;2023-02-22T14:27:19;100305.00;;;10.60
68952;BMP180;56000;51.146;17.112;2023-02-22T14:29:57;100306.00;;;10.60
68952;BMP180;56000;51.146;17.112;2023-02-22T14:32:35;100304.40;;;10.70
68952;BMP180;56000;51.146;17.112;2023-02-22T14:35:13;100304.20;;;10.80
68952;BMP180;56000;51.146;17.112;2023-02-22T14:38:02;100301.60;;;10.76
68952;BMP180;56000;51.146;17.112;2023-02-22T14:40:38;100304.40;;;10.70
68952;BMP180;56000;51.146;17.112;2023-02-22T14:43:15;100297.40;;;10.60
68952;BMP180;56000;51.146;17.112;2023-02-22T14:45:53;100295.20;;;10.50
68952;BMP180;56000;51.146;17.112;2023-02-22T14:48:33;100297.60;;;10.50
68952;BMP180;56000;51.146;17.112;2023-02-22T14:51:18;100299.20;;;10.40
68952;BMP180;56000;51.146;17.112;2023-02-22T14:54:01;100300.40;;;10.40
68952;BMP180;56000;51.146;17.112;2023-02-22T14:56:39;100293.60;;;10.30
68952;BMP180;56000;51.146;17.112;2023-02-22T14:59:20;100296.00;;;10.30
68952;BMP180;56000;51.146;17.112;2023-02-22T15:02:12;100296.40;;;10.30
68952;BMP180;56000;51.146;17.112;2023-02-22T15:04:53;100294.80;;;10.34
68952;BMP180;56000;51.146;17.112;2023-02-22T15:07:30;100294.20;;;10.30
68952;BMP180;56000;51.146;17.112;2023-02-22T15:10:24;100289.40;;;10.20
68952;BMP180;56000;51.146;17.112;2023-02-22T15:13:02;100288.60;;;10.10